Time;durP1;ratioP1;P1;durP2;ratioP2;P2;SDS_P1;SDS_P2;PMS_P1;PMS_P2;Temp;Humidity;BMP_temperature;BMP_pressure;BME280_temperature;BME280_humidity;BME280_pressure;Samples;Min_cycle;Max_cycle;Signal;HPM_P1;HPM_P2
2022/04/26 03:36:10;;;;;;;;;;;;;;;17.85;58.84;99440.09;2054501;28;20024;-66
2022/04/26 03:37:12;;;;;;;;;;;;;;;17.84;58.97;99444.72;2058280;28;20418;-65
2022/04/26 03:38:12;;;;;;;;;;;;;;;17.84;59.05;99439.25;2060005;28;19975;-65
2022/04/26 03:39:12;;;;;;;;;;;;;;;17.83;58.92;99442.97;2056615;28;19924;-65
2022/04/26 03:40:13;;;;;;;;;;;;;;;17.84;58.90;99444.72;2058319;28;19917;-66
2022/04/26 03:41:14;;;;;;;;;;;;;;;17.83;58.88;99442.97;2057761;28;19917;-66
2022/04/26 03:42:14;;;;;;;;;;;;;;;17.84;58.96;99443.88;2054711;28;19917;-65
2022/04/26 03:43:15;;;;;;;;;;;;;;;17.83;58.93;99448.44;2059863;28;20093;-65
2022/04/26 03:44:15;;;;;;;;;;;;;;;17.82;59.03;99452.19;2057288;28;20662;-65
2022/04/26 03:45:15;;;;;;;;;;;;;;;17.82;58.90;99454.91;2058033;28;19928;-65
2022/04/26 03:46:15;;;;;;;;;;;;;;;17.83;58.94;99453.03;2057567;28;20638;-65
2022/04/26 03:47:16;;;;;;;;;;;;;;;17.82;59.01;99446.72;2056160;28;19921;-65
2022/04/26 03:48:16;;;;;;;;;;;;;;;17.84;58.68;99449.31;2058973;28;19952;-66
2022/04/26 03:49:17;;;;;;;;;;;;;;;17.83;58.83;99447.59;2056512;28;19909;-65
2022/04/26 03:50:17;;;;;;;;;;;;;;;17.84;58.87;99447.44;2052495;28;20334;-65
2022/04/26 03:51:17;;;;;;;;;;;;;;;17.82;58.73;99441.28;2057012;28;19917;-64
2022/04/26 03:52:19;;;;;;;;;;;;;;;17.83;58.92;99455.75;2058490;28;20775;-64
2022/04/26 03:53:20;;;;;;;;;;;;;;;17.84;58.94;99454.78;2057132;28;19917;-65
2022/04/26 03:54:20;;;;;;;;;;;;;;;17.82;58.78;99444.00;2061755;28;19967;-65
2022/04/26 03:55:21;;;;;;;;;;;;;;;17.84;58.83;99457.50;2056960;28;20350;-66
2022/04/26 03:56:22;;;;;;;;;;;;;;;17.83;58.89;99448.44;2058153;28;19917;-66
2022/04/26 03:57:22;;;;;;;;;;;;;;;17.83;58.62;99448.44;2056288;28;20221;-64
2022/04/26 03:58:22;;;;;;;;;;;;;;;17.82;58.70;99446.72;2053705;28;19989;-65
2022/04/26 03:59:22;;;;;;;;;;;;;;;17.83;58.92;99453.03;2058061;28;19944;-65
2022/04/26 04:00:23;;;;;;;;;;;;;;;17.83;58.74;99453.88;2058071;28;19933;-65
2022/04/26 04:01:24;;;;;;;;;;;;;;;17.82;58.73;99448.59;2056819;28;19983;-66
2022/04/26 04:02:24;;;;;;;;;;;;;;;17.82;58.86;99452.19;2055812;28;19928;-66
2022/04/26 04:03:25;;;;;;;;;;;;;;;17.81;58.79;99455.94;2057624;28;19914;-66
2022/04/26 04:04:25;;;;;;;;;;;;;;;17.82;58.75;99452.19;2058144;28;20392;-66
2022/04/26 04:05:25;;;;;;;;;;;;;;;17.81;59.00;99455.94;2056870;28;19913;-65
2022/04/26 04:06:26;;;;;;;;;;;;;;;17.80;58.95;99456.94;2058072;28;20425;-65
2022/04/26 04:07:26;;;;;;;;;;;;;;;17.80;58.66;99454.22;2055679;28;20019;-65
2022/04/26 04:08:26;;;;;;;;;;;;;;;17.80;58.80;99459.66;2063200;28;19940;-68
2022/04/26 04:09:26;;;;;;;;;;;;;;;17.79;58.89;99452.47;2056780;28;19925;-65
2022/04/26 04:10:27;;;;;;;;;;;;;;;17.80;58.72;99456.94;2055879;28;19987;-66
2022/04/26 04:11:27;;;;;;;;;;;;;;;17.79;58.84;99453.31;2056069;28;19918;-64
2022/04/26 04:12:27;;;;;;;;;;;;;;;17.79;58.67;99457.94;2056092;28;19945;-65
2022/04/26 04:13:28;;;;;;;;;;;;;;;17.79;58.76;99463.38;2056329;28;20397;-65
2022/04/26 04:14:28;;;;;;;;;;;;;;;17.79;58.70;99455.19;2057120;28;20349;-65
2022/04/26 04:15:29;;;;;;;;;;;;;;;17.78;58.92;99461.66;2058819;28;19909;-65
2022/04/26 04:16:29;;;;;;;;;;;;;;;17.78;58.80;99461.66;2059217;28;19979;-65
2022/04/26 04:17:30;;;;;;;;;;;;;;;17.78;58.80;99458.91;2058441;28;20012;-65
2022/04/26 04:19:49;;;;;;;;;;;;;;;17.78;58.91;99461.66;2055976;28;19922;-64
2022/04/26 04:20:49;;;;;;;;;;;;;;;17.78;58.71;99461.66;2057794;28;19909;-64
2022/04/26 04:21:50;;;;;;;;;;;;;;;17.79;58.88;99463.38;2058498;28;20039;-63
2022/04/26 04:22:53;;;;;;;;;;;;;;;17.80;58.74;99467.84;2056664;28;19910;-63
2022/04/26 04:23:53;;;;;;;;;;;;;;;17.81;58.72;99460.50;2055325;28;20007;-63
2022/04/26 04:24:54;;;;;;;;;;;;;;;17.83;58.55;99466.66;2059608;28;19924;-63
2022/04/26 04:25:54;;;;;;;;;;;;;;;17.83;58.55;99462.06;2064921;28;20678;-63
2022/04/26 04:26:55;;;;;;;;;;;;;;;17.85;58.50;99462.78;2059464;28;19909;-65
2022/04/26 04:27:55;;;;;;;;;;;;;;;17.85;58.63;99460.03;2057356;28;20422;-63
2022/04/26 04:28:55;;;;;;;;;;;;;;;17.87;58.67;99466.19;2055725;28;20488;-63
2022/04/26 04:29:57;;;;;;;;;;;;;;;17.87;58.59;99474.38;2057958;28;19925;-63
2022/04/26 04:30:57;;;;;;;;;;;;;;;17.87;58.88;99468.94;2056709;28;20019;-63
2022/04/26 04:31:57;;;;;;;;;;;;;;;17.88;58.66;99467.91;2058865;28;20036;-63
2022/04/26 04:32:58;;;;;;;;;;;;;;;17.87;58.73;99471.66;2058781;28;20243;-62
2022/04/26 04:33:59;;;;;;;;;;;;;;;17.88;58.76;99473.34;2047244;28;19924;-62
2022/04/26 04:34:59;;;;;;;;;;;;;;;17.88;58.83;99467.06;2055979;28;20008;-63
2022/04/26 04:36:00;;;;;;;;;;;;;;;17.87;58.97;99466.19;2059596;28;19917;-64
2022/04/26 04:37:00;;;;;;;;;;;;;;;17.87;58.83;99474.38;2057774;28;19964;-63
2022/04/26 04:38:00;;;;;;;;;;;;;;;17.88;58.76;99477.97;2059566;28;20529;-63
2022/04/26 04:39:01;;;;;;;;;;;;;;;17.88;58.95;99478.81;2053865;28;20180;-63
2022/04/26 04:40:01;;;;;;;;;;;;;;;17.87;59.09;99474.38;2056533;28;20269;-64
2022/04/26 04:41:01;;;;;;;;;;;;;;;17.87;58.84;99479.84;2055985;28;20393;-63
2022/04/26 04:42:02;;;;;;;;;;;;;;;17.88;58.69;99478.81;2057527;28;19921;-63
2022/04/26 04:43:02;;;;;;;;;;;;;;;17.87;58.92;99479.84;2054985;28;19913;-64
2022/04/26 04:44:04;;;;;;;;;;;;;;;17.88;59.03;99483.41;2057820;28;20395;-63
2022/04/26 04:45:04;;;;;;;;;;;;;;;17.87;59.04;99471.66;2057542;28;20832;-63
2022/04/26 04:46:04;;;;;;;;;;;;;;;17.87;58.89;99474.38;2059332;28;20383;-63
2022/04/26 04:47:05;;;;;;;;;;;;;;;17.88;59.03;99478.81;2054533;28;19924;-62
2022/04/26 04:48:05;;;;;;;;;;;;;;;17.87;59.00;99477.09;2056406;28;20008;-63
2022/04/26 04:49:06;;;;;;;;;;;;;;;17.88;58.99;99476.09;2061006;28;19975;-62
2022/04/26 04:50:06;;;;;;;;;;;;;;;17.88;58.99;99478.81;2060753;28;19916;-63
2022/04/26 04:51:07;;;;;;;;;;;;;;;17.89;58.99;99475.09;2058777;28;20054;-63
2022/04/26 04:52:08;;;;;;;;;;;;;;;17.89;59.09;99472.34;2059206;28;19978;-63
2022/04/26 04:53:08;;;;;;;;;;;;;;;17.89;59.00;99475.09;2059096;28;19925;-64
2022/04/26 04:54:08;;;;;;;;;;;;;;;17.90;59.01;99476.78;2061834;28;19909;-62
2022/04/26 04:55:09;;;;;;;;;;;;;;;17.91;59.10;99475.78;2056988;28;19917;-63
2022/04/26 04:56:10;;;;;;;;;;;;;;;17.91;58.89;99478.50;2057899;28;19922;-63
2022/04/26 04:57:10;;;;;;;;;;;;;;;17.91;58.97;99475.78;2061188;28;19927;-62
2022/04/26 04:58:10;;;;;;;;;;;;;;;17.92;58.68;99476.63;2058650;28;19921;-63
2022/04/26 04:59:11;;;;;;;;;;;;;;;17.92;58.78;99479.38;2065123;28;19959;-63
2022/04/26 05:00:11;;;;;;;;;;;;;;;17.92;58.90;99474.75;2061938;28;19921;-62
2022/04/26 05:01:11;;;;;;;;;;;;;;;17.93;58.86;99481.94;2057438;28;20472;-63
2022/04/26 05:02:12;;;;;;;;;;;;;;;17.93;58.92;99487.41;2055351;28;19917;-62
2022/04/26 05:03:13;;;;;;;;;;;;;;;17.93;59.03;99481.06;2059904;28;19948;-62
2022/04/26 05:04:13;;;;;;;;;;;;;;;17.94;59.03;99483.66;2055587;28;19979;-63
2022/04/26 05:05:14;;;;;;;;;;;;;;;17.94;58.76;99483.66;2056326;28;20047;-63
2022/04/26 05:06:15;;;;;;;;;;;;;;;17.94;58.81;99483.66;2058320;28;19944;-63
2022/04/26 05:07:15;;;;;;;;;;;;;;;17.94;59.01;99482.78;2055935;28;21091;-63
2022/04/26 05:08:15;;;;;;;;;;;;;;;17.93;58.85;99484.69;2058768;28;19976;-64
2022/04/26 05:09:16;;;;;;;;;;;;;;;17.93;58.83;99481.94;2056506;28;20187;-63
2022/04/26 05:10:16;;;;;;;;;;;;;;;17.93;58.94;99489.25;2057055;28;19921;-63
2022/04/26 05:11:16;;;;;;;;;;;;;;;17.92;58.86;99482.94;2054125;28;19928;-63
2022/04/26 05:12:18;;;;;;;;;;;;;;;17.92;58.71;99482.94;2057020;28;19921;-63
2022/04/26 05:13:19;;;;;;;;;;;;;;;17.91;58.81;99483.97;2058249;28;20590;-63
2022/04/26 05:14:20;;;;;;;;;;;;;;;17.92;58.79;99480.22;2055353;28;19917;-62
2022/04/26 05:15:20;;;;;;;;;;;;;;;17.91;58.81;99483.97;2057173;28;20751;-64
2022/04/26 05:16:20;;;;;;;;;;;;;;;17.93;58.94;99483.78;2058786;28;19967;-62
2022/04/26 05:17:20;;;;;;;;;;;;;;;17.92;58.75;99480.22;2055988;28;19925;-64
2022/04/26 05:18:21;;;;;;;;;;;;;;;17.93;58.61;99486.53;2059108;28;20628;-65
2022/04/26 05:19:21;;;;;;;;;;;;;;;17.89;58.67;99483.25;2055478;28;19995;-65
2022/04/26 05:20:22;;;;;;;;;;;;;;;17.88;58.82;99487.00;2055729;28;19943;-65
2022/04/26 05:21:22;;;;;;;;;;;;;;;17.88;58.90;99483.41;2058655;28;19968;-65
2022/04/26 05:22:22;;;;;;;;;;;;;;;17.85;58.89;99490.03;2056376;28;20400;-66
2022/04/26 05:24:56;;;;;;;;;;;;;;;17.84;59.08;99493.78;2058109;28;20341;-65
2022/04/26 05:25:56;;;;;;;;;;;;;;;17.84;59.12;99499.25;2053623;28;19959;-65
2022/04/26 05:26:57;;;;;;;;;;;;;;;17.83;58.93;99502.09;2058609;28;20000;-65
2022/04/26 05:27:57;;;;;;;;;;;;;;;17.83;59.00;99493.94;2055011;28;19971;-66
2022/04/26 05:28:57;;;;;;;;;;;;;;;17.83;59.09;99500.22;2061192;28;19989;-66
2022/04/26 05:29:58;;;;;;;;;;;;;;;17.83;59.11;99489.31;2053557;28;20105;-67
2022/04/26 05:30:58;;;;;;;;;;;;;;;17.83;59.06;99491.19;2058285;28;19965;-66
2022/04/26 05:31:58;;;;;;;;;;;;;;;17.84;59.14;99501.13;2055910;28;19928;-65
2022/04/26 05:32:59;;;;;;;;;;;;;;;17.82;59.01;99498.53;2058321;28;20395;-64
2022/04/26 05:33:59;;;;;;;;;;;;;;;17.83;58.96;99496.66;2055252;28;19921;-65
2022/04/26 05:35:01;;;;;;;;;;;;;;;17.83;58.80;99499.38;2056527;28;19918;-65
2022/04/26 05:36:02;;;;;;;;;;;;;;;17.83;58.88;99505.69;2060890;28;19971;-65
2022/04/26 05:37:02;;;;;;;;;;;;;;;17.82;58.77;99498.53;2056100;28;19937;-65
2022/04/26 05:38:02;;;;;;;;;;;;;;;17.82;58.92;99504.00;2060725;28;19913;-65
2022/04/26 05:39:03;;;;;;;;;;;;;;;17.81;58.82;99502.28;2056978;28;20405;-65
2022/04/26 05:40:03;;;;;;;;;;;;;;;17.81;59.05;99499.56;2056840;28;19921;-66
2022/04/26 05:41:04;;;;;;;;;;;;;;;17.81;58.98;99506.84;2056534;28;20208;-65
2022/04/26 05:42:04;;;;;;;;;;;;;;;17.80;58.77;99503.28;2056559;28;19924;-65
2022/04/26 05:43:04;;;;;;;;;;;;;;;17.80;59.04;99503.28;2056199;28;20423;-65
2022/04/26 05:44:05;;;;;;;;;;;;;;;17.80;58.77;99503.28;2056116;28;20386;-64
2022/04/26 05:45:05;;;;;;;;;;;;;;;17.80;58.69;99500.56;2056173;28;20285;-64
2022/04/26 05:46:09;;;;;;;;;;;;;;;17.80;58.91;99503.28;2057773;28;20381;-64
2022/04/26 05:47:09;;;;;;;;;;;;;;;17.79;58.61;99510.56;2057391;28;19929;-64
2022/04/26 05:48:11;;;;;;;;;;;;;;;17.78;58.66;99505.25;2058581;28;19975;-64
2022/04/26 05:49:11;;;;;;;;;;;;;;;17.79;58.78;99507.00;2055431;28;19913;-64
2022/04/26 05:50:12;;;;;;;;;;;;;;;17.78;58.60;99499.81;2055238;28;19926;-64
2022/04/26 05:51:12;;;;;;;;;;;;;;;17.77;58.63;99509.03;2062843;28;19913;-65
2022/04/26 05:52:12;;;;;;;;;;;;;;;17.77;58.88;99511.75;2061192;28;19941;-64
2022/04/26 05:53:13;;;;;;;;;;;;;;;17.77;58.72;99506.28;2057061;28;19909;-66
2022/04/26 05:54:13;;;;;;;;;;;;;;;17.77;58.88;99509.03;2058238;28;19917;-65
2022/04/26 05:55:13;;;;;;;;;;;;;;;17.76;58.58;99505.44;2055667;28;19992;-65
2022/04/26 05:56:15;;;;;;;;;;;;;;;17.77;58.71;99506.28;2059599;28;19917;-63
2022/04/26 05:57:16;;;;;;;;;;;;;;;17.77;58.72;99514.47;2055799;28;19921;-63
2022/04/26 05:58:16;;;;;;;;;;;;;;;17.77;58.67;99514.47;2055503;28;19932;-64
2022/04/26 05:59:16;;;;;;;;;;;;;;;17.77;58.58;99514.47;2057603;28;20711;-63
2022/04/26 06:00:17;;;;;;;;;;;;;;;17.78;58.50;99516.16;2055883;28;19991;-64
2022/04/26 06:01:17;;;;;;;;;;;;;;;17.77;58.58;99514.47;2059993;28;20078;-64
2022/04/26 06:02:17;;;;;;;;;;;;;;;17.77;58.59;99514.47;2057076;28;19917;-64
2022/04/26 06:03:18;;;;;;;;;;;;;;;17.77;58.64;99514.47;2058980;28;19922;-64
2022/04/26 06:04:18;;;;;;;;;;;;;;;17.77;58.74;99519.94;2058311;28;20708;-67
2022/04/26 06:05:18;;;;;;;;;;;;;;;17.76;58.52;99512.75;2056391;28;20064;-65
2022/04/26 06:06:19;;;;;;;;;;;;;;;17.76;58.52;99507.28;2059766;28;19930;-65
2022/04/26 06:07:19;;;;;;;;;;;;;;;17.76;58.75;99512.75;2056007;28;19926;-65
2022/04/26 06:08:19;;;;;;;;;;;;;;;17.75;58.37;99517.34;2058865;28;19918;-65
2022/04/26 06:09:20;;;;;;;;;;;;;;;17.75;58.80;99517.34;2058669;28;19972;-65
2022/04/26 06:10:20;;;;;;;;;;;;;;;17.75;58.51;99521.94;2056327;28;19988;-65
2022/04/26 06:11:20;;;;;;;;;;;;;;;17.75;58.53;99522.78;2060059;28;19922;-64
2022/04/26 06:12:25;;;;;;;;;;;;;;;17.74;58.52;99518.38;2053360;28;20857;-64
2022/04/26 06:13:25;;;;;;;;;;;;;;;17.74;58.61;99520.25;2054897;28;20028;-64
2022/04/26 06:14:25;;;;;;;;;;;;;;;17.74;58.73;99522.97;2060048;28;19917;-65
2022/04/26 06:15:25;;;;;;;;;;;;;;;17.74;58.63;99522.97;2057324;28;19968;-65
2022/04/26 06:16:26;;;;;;;;;;;;;;;17.72;58.44;99517.66;2060493;28;19918;-65
2022/04/26 06:17:27;;;;;;;;;;;;;;;17.73;58.45;99518.50;2058330;28;19925;-65
2022/04/26 06:18:27;;;;;;;;;;;;;;;17.73;58.44;99521.22;2057816;28;19917;-64
2022/04/26 06:19:27;;;;;;;;;;;;;;;17.73;58.73;99523.97;2059134;28;19917;-65
2022/04/26 06:20:29;;;;;;;;;;;;;;;17.72;58.40;99523.09;2056630;28;19909;-65
2022/04/26 06:21:29;;;;;;;;;;;;;;;17.72;58.58;99522.25;2058869;28;19921;-65
2022/04/26 06:22:30;;;;;;;;;;;;;;;17.72;58.53;99528.56;2057655;28;19944;-65
2022/04/26 06:23:30;;;;;;;;;;;;;;;17.72;58.54;99527.72;2058805;28;20111;-65
2022/04/26 06:24:30;;;;;;;;;;;;;;;17.70;58.43;99524.28;2064238;28;19967;-65
2022/04/26 06:25:36;;;;;;;;;;;;;;;17.71;58.70;99525.97;2066728;28;20297;-65
2022/04/26 06:26:36;;;;;;;;;;;;;;;17.71;58.41;99526.88;2059447;28;20288;-65
2022/04/26 06:27:37;;;;;;;;;;;;;;;17.71;58.56;99520.53;2054660;28;20004;-65
2022/04/26 06:28:37;;;;;;;;;;;;;;;17.72;58.42;99525.00;2057457;28;19910;-64
2022/04/26 06:29:37;;;;;;;;;;;;;;;17.75;58.26;99521.94;2058389;28;19917;-64
2022/04/26 06:30:41;;;;;;;;;;;;;;;17.76;58.35;99518.19;2055728;28;19909;-64
2022/04/26 06:31:41;;;;;;;;;;;;;;;17.78;58.41;99532.53;2056510;28;20448;-63
2022/04/26 06:32:43;;;;;;;;;;;;;;;17.79;58.24;99523.34;2057480;28;20408;-64
2022/04/26 06:33:43;;;;;;;;;;;;;;;17.79;58.27;99521.47;2055969;28;20015;-64
2022/04/26 06:34:43;;;;;;;;;;;;;;;17.82;58.12;99528.53;2055279;28;19980;-64
2022/04/26 06:35:44;;;;;;;;;;;;;;;17.84;58.14;99525.66;2056503;28;19955;-64
2022/04/26 06:36:44;;;;;;;;;;;;;;;17.84;58.13;99526.50;2059377;28;20184;-64
2022/04/26 06:37:44;;;;;;;;;;;;;;;17.85;57.99;99520.03;2058391;28;20259;-64
2022/04/26 06:38:44;;;;;;;;;;;;;;;17.86;58.04;99524.47;2056917;28;19940;-63
2022/04/26 06:39:45;;;;;;;;;;;;;;;17.87;58.14;99525.34;2056139;28;20736;-64
2022/04/26 06:40:48;;;;;;;;;;;;;;;17.87;58.36;99523.47;2056651;28;20415;-63
2022/04/26 06:41:48;;;;;;;;;;;;;;;17.88;58.52;99516.13;2049667;28;19948;-64
2022/04/26 06:42:48;;;;;;;;;;;;;;;17.88;58.32;99522.44;2055641;28;19938;-65
2022/04/26 06:43:49;;;;;;;;;;;;;;;17.88;58.32;99527.88;2058546;28;19921;-64
2022/04/26 06:44:49;;;;;;;;;;;;;;;17.89;58.52;99528.78;2058998;28;19913;-64
2022/04/26 06:45:49;;;;;;;;;;;;;;;17.89;58.25;99526.88;2057331;28;19990;-64
2022/04/26 06:46:50;;;;;;;;;;;;;;;17.89;58.45;99529.63;2059969;28;19918;-64
2022/04/26 06:47:50;;;;;;;;;;;;;;;17.89;58.32;99523.31;2056268;28;19955;-64
2022/04/26 06:48:50;;;;;;;;;;;;;;;17.89;58.63;99526.03;2063521;28;19924;-64
2022/04/26 06:49:50;;;;;;;;;;;;;;;17.88;58.63;99527.88;2063894;28;19956;-64
2022/04/26 06:50:53;;;;;;;;;;;;;;;17.88;58.47;99536.06;2059806;28;20512;-64
2022/04/26 06:51:53;;;;;;;;;;;;;;;17.87;58.49;99534.38;2062722;28;19917;-64
2022/04/26 06:52:53;;;;;;;;;;;;;;;17.88;58.41;99527.03;2058369;28;20430;-64
2022/04/26 06:53:54;;;;;;;;;;;;;;;17.87;58.73;99531.63;2054377;28;19924;-64
2022/04/26 06:54:54;;;;;;;;;;;;;;;17.88;58.76;99532.50;2052448;28;19919;-63
2022/04/26 06:55:54;;;;;;;;;;;;;;;17.87;58.58;99526.19;2056913;28;19957;-64
2022/04/26 06:56:55;;;;;;;;;;;;;;;17.88;58.52;99533.34;2057700;28;19961;-64
2022/04/26 06:57:55;;;;;;;;;;;;;;;17.87;58.42;99531.63;2055800;28;19918;-65
2022/04/26 06:58:55;;;;;;;;;;;;;;;17.88;58.42;99533.34;2058722;28;20305;-65
2022/04/26 06:59:55;;;;;;;;;;;;;;;17.88;58.74;99527.88;2057258;28;19974;-63
2022/04/26 07:00:56;;;;;;;;;;;;;;;17.87;58.48;99531.63;2054833;28;19995;-65
2022/04/26 07:01:56;;;;;;;;;;;;;;;17.88;58.42;99527.88;2055065;28;19921;-64
2022/04/26 07:02:57;;;;;;;;;;;;;;;17.89;58.60;99534.22;2055796;28;20401;-64
2022/04/26 07:03:58;;;;;;;;;;;;;;;17.88;58.78;99521.59;2054821;28;19945;-63
2022/04/26 07:04:58;;;;;;;;;;;;;;;17.89;58.70;99539.69;2057351;28;19960;-64
2022/04/26 07:05:58;;;;;;;;;;;;;;;17.90;58.76;99536.78;2055763;28;19944;-64
2022/04/26 07:06:59;;;;;;;;;;;;;;;17.90;58.68;99536.78;2055224;28;19929;-65
2022/04/26 07:07:59;;;;;;;;;;;;;;;17.91;58.75;99543.97;2056896;28;19968;-65
2022/04/26 07:09:01;;;;;;;;;;;;;;;17.92;58.58;99537.47;2055758;28;19925;-65
2022/04/26 07:10:01;;;;;;;;;;;;;;;17.94;58.51;99534.59;2055246;28;19926;-65
2022/04/26 07:11:02;;;;;;;;;;;;;;;17.96;58.39;99538.03;2060070;28;19916;-65
2022/04/26 07:12:02;;;;;;;;;;;;;;;17.96;58.68;99536.16;2056132;28;20008;-68
2022/04/26 07:13:03;;;;;;;;;;;;;;;17.99;58.38;99540.44;2057974;28;20012;-68
2022/04/26 07:14:03;;;;;;;;;;;;;;;17.99;58.46;99538.56;2062560;28;19917;-66
2022/04/26 07:15:04;;;;;;;;;;;;;;;17.99;58.42;99540.44;2060956;28;19921;-67
2022/04/26 07:16:05;;;;;;;;;;;;;;;18.01;58.41;99541.16;2058036;28;19917;-67
2022/04/26 07:17:06;;;;;;;;;;;;;;;18.00;58.60;99537.53;2059454;28;19929;-67
2022/04/26 07:18:06;;;;;;;;;;;;;;;18.03;58.49;99546.44;2060201;28;19922;-67
2022/04/26 07:19:07;;;;;;;;;;;;;;;18.04;58.65;99542.72;2058181;28;19925;-67
2022/04/26 07:20:11;;;;;;;;;;;;;;;18.03;58.46;99540.97;2057979;28;19928;-68
2022/04/26 07:21:11;;;;;;;;;;;;;;;18.04;58.45;99543.56;2057361;28;20560;-69
2022/04/26 07:22:11;;;;;;;;;;;;;;;18.05;58.48;99544.41;2054049;28;20772;-69
2022/04/26 07:23:12;;;;;;;;;;;;;;;18.05;58.49;99541.69;2057280;28;19918;-71
2022/04/26 07:24:12;;;;;;;;;;;;;;;18.07;58.49;99542.38;2057673;28;19910;-68
2022/04/26 07:25:12;;;;;;;;;;;;;;;18.08;58.46;99544.09;2058788;28;19917;-69
2022/04/26 07:26:13;;;;;;;;;;;;;;;18.10;58.25;99542.06;2057830;28;19955;-70
2022/04/26 07:27:13;;;;;;;;;;;;;;;18.09;58.25;99541.22;2058302;28;20612;-69
2022/04/26 07:28:14;;;;;;;;;;;;;;;18.12;58.10;99545.50;2059515;28;19921;-70
2022/04/26 07:29:15;;;;;;;;;;;;;;;18.13;58.19;99544.50;2059191;28;20009;-70
2022/04/26 07:30:15;;;;;;;;;;;;;;;18.13;58.12;99547.22;2056455;28;20012;-69
2022/04/26 07:31:16;;;;;;;;;;;;;;;18.12;58.14;99550.97;2057983;28;19920;-70
2022/04/26 07:32:16;;;;;;;;;;;;;;;18.11;58.09;99544.66;2055076;28;19917;-69
2022/04/26 07:34:36;;;;;;;;;;;;;;;18.11;58.26;99543.81;2059336;28;19917;-69
2022/04/26 07:35:36;;;;;;;;;;;;;;;18.11;57.98;99543.81;2054425;28;19905;-69
2022/04/26 07:36:38;;;;;;;;;;;;;;;18.12;58.00;99551.81;2058275;28;20775;-69
2022/04/26 07:37:41;;;;;;;;;;;;;;;18.12;57.92;99545.50;2055753;28;20455;-68
2022/04/26 07:38:41;;;;;;;;;;;;;;;18.13;58.07;99552.69;2054704;28;20623;-69
2022/04/26 07:39:42;;;;;;;;;;;;;;;18.14;58.05;99551.66;2055579;28;20099;-68
2022/04/26 07:40:42;;;;;;;;;;;;;;;18.13;57.89;99552.69;2057936;28;19925;-69
2022/04/26 07:41:44;;;;;;;;;;;;;;;18.13;57.88;99548.09;2055390;28;20128;-70
2022/04/26 07:42:45;;;;;;;;;;;;;;;18.13;58.03;99552.69;2059904;28;20372;-68
2022/04/26 07:43:45;;;;;;;;;;;;;;;18.13;57.99;99545.34;2056348;28;20273;-68
2022/04/26 07:44:45;;;;;;;;;;;;;;;18.14;57.80;99549.78;2063829;28;20364;-68
2022/04/26 07:45:46;;;;;;;;;;;;;;;18.16;57.88;99555.09;2065854;28;19917;-66
2022/04/26 07:46:47;;;;;;;;;;;;;;;18.15;57.86;99548.78;2058989;28;19917;-68
2022/04/26 07:47:47;;;;;;;;;;;;;;;18.17;57.98;99548.59;2055485;28;19921;-68
2022/04/26 07:48:48;;;;;;;;;;;;;;;18.17;57.77;99551.34;2055340;28;20434;-68
2022/04/26 07:49:48;;;;;;;;;;;;;;;18.17;57.86;99554.06;2057174;28;20084;-68
2022/04/26 07:50:49;;;;;;;;;;;;;;;18.18;57.95;99550.34;2058734;28;19968;-67
2022/04/26 07:51:50;;;;;;;;;;;;;;;18.18;57.82;99555.81;2057709;28;19918;-68
2022/04/26 07:52:50;;;;;;;;;;;;;;;18.17;57.86;99554.91;2059745;28;20338;-68
2022/04/26 07:53:51;;;;;;;;;;;;;;;18.18;57.74;99556.66;2056677;28;19921;-68
2022/04/26 07:54:51;;;;;;;;;;;;;;;18.17;57.81;99549.47;2057697;28;19924;-67
2022/04/26 07:55:51;;;;;;;;;;;;;;;18.16;57.74;99555.09;2059384;28;20299;-68
2022/04/26 07:56:52;;;;;;;;;;;;;;;18.15;57.63;99554.25;2059657;28;19921;-68
2022/04/26 07:57:52;;;;;;;;;;;;;;;18.14;57.72;99548.94;2054706;28;19917;-67
2022/04/26 07:58:53;;;;;;;;;;;;;;;18.14;57.88;99559.84;2054338;28;19952;-68
2022/04/26 07:59:53;;;;;;;;;;;;;;;18.12;58.00;99546.34;2057071;28;20344;-67
2022/04/26 08:00:53;;;;;;;;;;;;;;;18.13;57.72;99553.53;2055895;28;19971;-67
2022/04/26 08:01:53;;;;;;;;;;;;;;;18.14;57.77;99554.38;2059158;28;19926;-67
2022/04/26 08:02:55;;;;;;;;;;;;;;;18.13;57.72;99549.97;2058920;28;20449;-68
2022/04/26 08:03:55;;;;;;;;;;;;;;;18.16;57.62;99552.38;2057137;28;20855;-69
2022/04/26 08:05:01;;;;;;;;;;;;;;;18.15;57.63;99554.25;2060620;28;19981;-67
2022/04/26 08:06:01;;;;;;;;;;;;;;;18.16;57.69;99555.09;2054744;28;19921;-68
2022/04/26 08:07:02;;;;;;;;;;;;;;;18.15;57.55;99556.09;2061415;28;19925;-68
2022/04/26 08:08:02;;;;;;;;;;;;;;;18.14;57.62;99555.25;2059205;28;19952;-67
2022/04/26 08:09:03;;;;;;;;;;;;;;;18.12;57.81;99554.53;2048756;28;19917;-68
2022/04/26 08:10:03;;;;;;;;;;;;;;;18.11;57.93;99551.97;2056553;28;19921;-68
2022/04/26 08:11:03;;;;;;;;;;;;;;;18.09;57.86;99551.28;2056262;28;20000;-67
2022/04/26 08:12:04;;;;;;;;;;;;;;;18.07;57.35;99551.41;2056756;28;19916;-68
2022/04/26 08:13:04;;;;;;;;;;;;;;;18.06;56.92;99544.28;2058970;28;19996;-68
2022/04/26 08:14:05;;;;;;;;;;;;;;;18.05;57.04;99549.88;2055864;28;19925;-68
2022/04/26 08:15:05;;;;;;;;;;;;;;;18.06;57.29;99554.31;2058576;28;20104;-68
2022/04/26 08:16:09;;;;;;;;;;;;;;;18.03;57.28;99546.44;2057416;28;20016;-68
2022/04/26 08:17:11;;;;;;;;;;;;;;;18.03;57.17;99549.16;2055640;28;20955;-68
2022/04/26 08:18:12;;;;;;;;;;;;;;;18.03;56.77;99546.44;2066887;28;19983;-68
2022/04/26 08:19:13;;;;;;;;;;;;;;;18.03;56.90;99549.16;2056848;28;19918;-68
2022/04/26 08:20:13;;;;;;;;;;;;;;;18.02;56.56;99552.91;2050614;28;20045;-67
2022/04/26 08:21:14;;;;;;;;;;;;;;;18.01;56.42;99546.59;2059824;28;20040;-67
2022/04/26 08:22:14;;;;;;;;;;;;;;;18.02;56.46;99545.59;2055385;28;20171;-67
2022/04/26 08:23:14;;;;;;;;;;;;;;;18.02;56.35;99547.47;2065106;28;19916;-68
2022/04/26 08:28:11;;;;;;;;;;;;;;;17.99;56.08;99545.91;2055782;28;19917;-68
2022/04/26 08:29:15;;;;;;;;;;;;;;;17.99;56.20;99552.22;2055266;28;19956;-67
2022/04/26 08:30:16;;;;;;;;;;;;;;;17.99;56.38;99549.47;2050186;28;19937;-67
2022/04/26 08:31:16;;;;;;;;;;;;;;;18.00;56.11;99547.59;2052644;28;19922;-67
2022/04/26 08:32:16;;;;;;;;;;;;;;;18.00;56.19;99551.19;2055922;28;20063;-68
2022/04/26 08:33:17;;;;;;;;;;;;;;;17.98;56.27;99550.50;2054727;28;20058;-67
2022/04/26 08:34:17;;;;;;;;;;;;;;;17.98;56.24;99550.50;2057762;28;20032;-67
2022/04/26 08:35:19;;;;;;;;;;;;;;;17.97;56.22;99548.78;2056220;28;19988;-67
2022/04/26 08:36:19;;;;;;;;;;;;;;;17.98;56.01;99550.50;2056175;28;19922;-66
2022/04/26 08:37:20;;;;;;;;;;;;;;;17.97;56.00;99542.47;2060595;28;19921;-65
2022/04/26 08:38:21;;;;;;;;;;;;;;;17.97;55.82;99551.50;2054653;28;19926;-67
2022/04/26 08:39:23;;;;;;;;;;;;;;;18.00;55.85;99556.63;2056441;28;20479;-68
2022/04/26 08:40:25;;;;;;;;;;;;;;;17.99;55.64;99554.94;2065357;28;20258;-68
2022/04/26 08:41:26;;;;;;;;;;;;;;;17.99;55.77;99552.22;2069435;28;20617;-67
2022/04/26 08:42:42;;;;;;;;;;;;;;;17.98;55.62;99553.22;2064426;28;19921;-67
2022/04/26 08:43:42;;;;;;;;;;;;;;;18.00;55.88;99556.63;2057388;28;19964;-67
2022/04/26 08:44:44;;;;;;;;;;;;;;;17.98;56.24;99555.97;2056305;28;20276;-68
2022/04/26 08:45:47;;;;;;;;;;;;;;;17.99;55.86;99560.38;2055992;28;19926;-69
2022/04/26 08:51:02;;;;;;;;;;;;;;;18.07;55.00;99553.28;2057003;28;20658;-69
2022/04/26 08:52:03;;;;;;;;;;;;;;;18.05;54.03;99558.03;2057027;28;19956;-69
2022/04/26 08:53:04;;;;;;;;;;;;;;;18.05;53.51;99555.31;2054750;28;19917;-69
2022/04/26 08:54:04;;;;;;;;;;;;;;;17.96;53.13;99552.53;2058386;28;20448;-69
2022/04/26 08:55:04;;;;;;;;;;;;;;;17.93;52.93;99552.84;2064037;28;20276;-65
2022/04/26 08:56:06;;;;;;;;;;;;;;;17.94;52.97;99560.00;2073156;28;19956;-63
2022/04/26 08:57:08;;;;;;;;;;;;;;;17.98;53.33;99555.97;2073181;28;19928;-64
2022/04/26 08:58:11;;;;;;;;;;;;;;;18.01;52.93;99562.97;2073302;28;19923;-64
2022/04/26 08:59:12;;;;;;;;;;;;;;;18.03;52.70;99569.13;2073401;28;19913;-65
2022/04/26 09:00:13;;;;;;;;;;;;;;;18.02;52.10;99555.63;2074805;28;20373;-65
2022/04/26 09:01:22;;;;;;;;;;;;;;;17.93;51.25;99558.28;2072169;28;19924;-65
2022/04/26 09:02:23;;;;;;;;;;;;;;;17.84;51.14;99556.50;2071727;28;19914;-65
2022/04/26 09:03:23;;;;;;;;;;;;;;;17.83;51.04;99557.50;2073033;28;19914;-65
2022/04/26 09:04:23;;;;;;;;;;;;;;;17.87;51.50;99558.06;2072665;28;19917;-64